sensor_id;sensor_type;location;lat;lon;timestamp;pressure;altitude;pressure_sealevel;temperature;humidity
24154;BME280;12312;53.362;-1.518;2023-02-28T00:00:51;101083.34;;;4.29;100.00
24154;BME280;12312;53.362;-1.518;2023-02-28T00:03:17;101067.56;;;4.28;100.00
24154;BME280;12312;53.362;-1.518;2023-02-28T00:05:42;101076.47;;;4.21;100.00
24154;BME280;12312;53.362;-1.518;2023-02-28T00:08:08;101072.00;;;4.24;100.00
24154;BME280;12312;53.362;-1.518;2023-02-28T00:10:34;101080.88;;;4.20;100.00
24154;BME280;12312;53.362;-1.518;2023-02-28T00:13:04;101080.69;;;4.29;100.00
24154;BME280;12312;53.362;-1.518;2023-02-28T00:15:31;101086.97;;;4.22;100.00
24154;BME280;12312;53.362;-1.518;2023-02-28T00:17:56;101077.22;;;4.27;100.00
24154;BME280;12312;53.362;-1.518;2023-02-28T00:20:22;101079.09;;;4.22;100.00
24154;BME280;12312;53.362;-1.518;2023-02-28T00:22:50;101073.75;;;4.25;100.00
24154;BME280;12312;53.362;-1.518;2023-02-28T00:25:19;101084.28;;;4.27;100.00
24154;BME280;12312;53.362;-1.518;2023-02-28T00:27:45;101077.31;;;4.21;100.00
24154;BME280;12312;53.362;-1.518;2023-02-28T00:30:13;101080.97;;;4.14;100.00
24154;BME280;12312;53.362;-1.518;2023-02-28T00:32:40;101092.28;;;4.21;100.00
24154;BME280;12312;53.362;-1.518;2023-02-28T00:35:06;101094.88;;;4.22;100.00
24154;BME280;12312;53.362;-1.518;2023-02-28T00:37:32;101086.19;;;4.17;100.00
24154;BME280;12312;53.362;-1.518;2023-02-28T00:39:57;101092.41;;;4.13;100.00
24154;BME280;12312;53.362;-1.518;2023-02-28T00:42:23;101095.88;;;4.14;100.00
24154;BME280;12312;53.362;-1.518;2023-02-28T00:44:49;101097.59;;;4.18;100.00
24154;BME280;12312;53.362;-1.518;2023-02-28T00:47:15;101090.56;;;4.17;100.00
24154;BME280;12312;53.362;-1.518;2023-02-28T00:49:41;101105.56;;;4.13;100.00
24154;BME280;12312;53.362;-1.518;2023-02-28T00:52:06;101099.31;;;4.20;100.00
24154;BME280;12312;53.362;-1.518;2023-02-28T00:54:32;101093.97;;;4.25;100.00
24154;BME280;12312;53.362;-1.518;2023-02-28T00:56:58;101106.25;;;4.24;100.00
24154;BME280;12312;53.362;-1.518;2023-02-28T00:59:23;101095.84;;;4.17;100.00
24154;BME280;12312;53.362;-1.518;2023-02-28T01:01:49;101101.94;;;4.20;100.00
24154;BME280;12312;53.362;-1.518;2023-02-28T01:04:14;101102.81;;;4.21;100.00
24154;BME280;12312;53.362;-1.518;2023-02-28T01:06:40;101099.34;;;4.19;100.00
24154;BME280;12312;53.362;-1.518;2023-02-28T01:09:07;101102.84;;;4.19;100.00
24154;BME280;12312;53.362;-1.518;2023-02-28T01:11:33;101106.41;;;4.15;100.00
24154;BME280;12312;53.362;-1.518;2023-02-28T01:13:59;101103.72;;;4.18;100.00
24154;BME280;12312;53.362;-1.518;2023-02-28T01:16:25;101094.06;;;4.19;100.00
24154;BME280;12312;53.362;-1.518;2023-02-28T01:18:50;101096.00;;;4.06;100.00
24154;BME280;12312;53.362;-1.518;2023-02-28T01:21:17;101094.22;;;4.10;100.00
24154;BME280;12312;53.362;-1.518;2023-02-28T01:23:44;101096.81;;;4.11;100.00
24154;BME280;12312;53.362;-1.518;2023-02-28T01:26:14;101087.16;;;4.10;100.00
24154;BME280;12312;53.362;-1.518;2023-02-28T01:28:40;101095.16;;;4.04;100.00
24154;BME280;12312;53.362;-1.518;2023-02-28T01:31:06;101088.25;;;3.97;100.00
24154;BME280;12312;53.362;-1.518;2023-02-28T01:33:32;101093.53;;;3.97;100.00
24154;BME280;12312;53.362;-1.518;2023-02-28T01:36:03;101098.69;;;4.03;100.00
24154;BME280;12312;53.362;-1.518;2023-02-28T01:38:29;101104.03;;;4.00;100.00
24154;BME280;12312;53.362;-1.518;2023-02-28T01:40:54;101103.13;;;4.01;100.00
24154;BME280;12312;53.362;-1.518;2023-02-28T01:43:28;101094.34;;;4.02;100.00
24154;BME280;12312;53.362;-1.518;2023-02-28T01:45:56;101091.63;;;4.07;100.00
24154;BME280;12312;53.362;-1.518;2023-02-28T01:48:26;101081.03;;;4.10;100.00
24154;BME280;12312;53.362;-1.518;2023-02-28T01:50:54;101087.16;;;4.12;100.00
24154;BME280;12312;53.362;-1.518;2023-02-28T01:53:27;101087.16;;;4.10;100.00
24154;BME280;12312;53.362;-1.518;2023-02-28T01:55:56;101098.69;;;4.03;100.00
24154;BME280;12312;53.362;-1.518;2023-02-28T01:58:22;101091.72;;;4.01;100.00
24154;BME280;12312;53.362;-1.518;2023-02-28T02:00:48;101081.91;;;4.12;100.00
24154;BME280;12312;53.362;-1.518;2023-02-28T02:03:16;101088.00;;;4.12;100.00
24154;BME280;12312;53.362;-1.518;2023-02-28T02:05:46;101085.38;;;4.12;100.00
24154;BME280;12312;53.362;-1.518;2023-02-28T02:08:16;101089.81;;;4.09;100.00
24154;BME280;12312;53.362;-1.518;2023-02-28T02:10:44;101086.28;;;4.11;100.00
24154;BME280;12312;53.362;-1.518;2023-02-28T02:16:03;101089.78;;;4.13;100.00
24154;BME280;12312;53.362;-1.518;2023-02-28T02:37:11;101086.38;;;4.05;100.00
24154;BME280;12312;53.362;-1.518;2023-02-28T02:39:40;101082.03;;;4.01;100.00
24154;BME280;12312;53.362;-1.518;2023-02-28T02:42:29;101088.13;;;4.06;100.00
24154;BME280;12312;53.362;-1.518;2023-02-28T02:45:26;101089.84;;;4.07;100.00
24154;BME280;12312;53.362;-1.518;2023-02-28T02:47:56;101091.75;;;3.99;100.00
24154;BME280;12312;53.362;-1.518;2023-02-28T02:50:30;101083.00;;;3.97;100.00
24154;BME280;12312;53.362;-1.518;2023-02-28T02:52:59;101095.25;;;3.98;100.00
24154;BME280;12312;53.362;-1.518;2023-02-28T02:55:27;101096.97;;;4.02;100.00
24154;BME280;12312;53.362;-1.518;2023-02-28T02:57:57;101080.25;;;4.03;100.00
24154;BME280;12312;53.362;-1.518;2023-02-28T03:00:27;101084.53;;;4.10;100.00
24154;BME280;12312;53.362;-1.518;2023-02-28T03:02:56;101082.94;;;4.00;100.00
24154;BME280;12312;53.362;-1.518;2023-02-28T03:05:27;101084.72;;;3.98;100.00
24154;BME280;12312;53.362;-1.518;2023-02-28T03:07:55;101082.94;;;4.00;100.00
24154;BME280;12312;53.362;-1.518;2023-02-28T03:10:37;101080.34;;;3.99;100.00
24154;BME280;12312;53.362;-1.518;2023-02-28T03:13:20;101082.06;;;4.00;100.00
24154;BME280;12312;53.362;-1.518;2023-02-28T03:24:33;101087.28;;;4.03;100.00
24154;BME280;12312;53.362;-1.518;2023-02-28T03:27:30;101073.38;;;3.95;100.00
24154;BME280;12312;53.362;-1.518;2023-02-28T03:32:34;101081.22;;;3.99;100.00
24154;BME280;12312;53.362;-1.518;2023-02-28T03:35:16;101089.16;;;3.96;100.00
24154;BME280;12312;53.362;-1.518;2023-02-28T03:37:48;101085.56;;;4.00;100.00
24154;BME280;12312;53.362;-1.518;2023-02-28T03:40:19;101086.53;;;3.96;100.00
24154;BME280;12312;53.362;-1.518;2023-02-28T03:42:49;101087.41;;;3.95;100.00
24154;BME280;12312;53.362;-1.518;2023-02-28T03:45:21;101082.91;;;4.03;100.00
24154;BME280;12312;53.362;-1.518;2023-02-28T03:47:53;101086.50;;;3.98;100.00
24154;BME280;12312;53.362;-1.518;2023-02-28T03:50:24;101088.16;;;4.03;100.00
24154;BME280;12312;53.362;-1.518;2023-02-28T03:56:07;101075.88;;;4.04;100.00
24154;BME280;12312;53.362;-1.518;2023-02-28T03:59:07;101083.81;;;4.01;100.00
24154;BME280;12312;53.362;-1.518;2023-02-28T04:01:38;101074.09;;;4.04;100.00
24154;BME280;12312;53.362;-1.518;2023-02-28T04:04:07;101075.00;;;4.03;100.00
24154;BME280;12312;53.362;-1.518;2023-02-28T04:06:33;101069.72;;;4.03;100.00
24154;BME280;12312;53.362;-1.518;2023-02-28T04:08:59;101068.72;;;4.10;100.00
24154;BME280;12312;53.362;-1.518;2023-02-28T04:14:03;101084.69;;;4.01;100.00
24154;BME280;12312;53.362;-1.518;2023-02-28T04:16:31;101065.38;;;4.02;100.00
24154;BME280;12312;53.362;-1.518;2023-02-28T04:18:57;101091.66;;;4.05;100.00
24154;BME280;12312;53.362;-1.518;2023-02-28T04:21:36;101092.50;;;4.06;100.00
24154;BME280;12312;53.362;-1.518;2023-02-28T04:24:03;101081.00;;;4.11;100.00
24154;BME280;12312;53.362;-1.518;2023-02-28T04:26:33;101090.81;;;4.02;100.00
24154;BME280;12312;53.362;-1.518;2023-02-28T04:28:59;101090.78;;;4.05;100.00
24154;BME280;12312;53.362;-1.518;2023-02-28T04:31:25;101085.34;;;4.14;100.00
24154;BME280;12312;53.362;-1.518;2023-02-28T04:33:51;101089.84;;;4.07;100.00
24154;BME280;12312;53.362;-1.518;2023-02-28T04:36:17;101091.75;;;3.99;100.00
24154;BME280;12312;53.362;-1.518;2023-02-28T04:38:46;101089.03;;;4.04;100.00
24154;BME280;12312;53.362;-1.518;2023-02-28T04:41:15;101092.53;;;4.04;100.00
24154;BME280;12312;53.362;-1.518;2023-02-28T04:43:40;101101.28;;;4.06;100.00
24154;BME280;12312;53.362;-1.518;2023-02-28T04:46:06;101096.03;;;4.05;100.00
24154;BME280;12312;53.362;-1.518;2023-02-28T04:48:34;101095.94;;;4.11;100.00
24154;BME280;12312;53.362;-1.518;2023-02-28T04:51:11;101093.38;;;4.06;100.00
24154;BME280;12312;53.362;-1.518;2023-02-28T04:53:38;101091.59;;;4.08;100.00
24154;BME280;12312;53.362;-1.518;2023-02-28T04:56:04;101090.63;;;4.14;100.00
24154;BME280;12312;53.362;-1.518;2023-02-28T04:58:31;101093.34;;;4.09;100.00
24154;BME280;12312;53.362;-1.518;2023-02-28T05:01:02;101100.31;;;4.13;100.00
24154;BME280;12312;53.362;-1.518;2023-02-28T05:03:28;101087.13;;;4.13;100.00
24154;BME280;12312;53.362;-1.518;2023-02-28T05:05:53;101089.66;;;4.19;100.00
24154;BME280;12312;53.362;-1.518;2023-02-28T05:08:19;101082.63;;;4.20;100.00
24154;BME280;12312;53.362;-1.518;2023-02-28T05:10:44;101095.09;;;4.07;100.00
24154;BME280;12312;53.362;-1.518;2023-02-28T05:13:13;101097.66;;;4.15;100.00
24154;BME280;12312;53.362;-1.518;2023-02-28T05:15:38;101093.34;;;4.09;100.00
24154;BME280;12312;53.362;-1.518;2023-02-28T05:18:04;101095.97;;;4.09;100.00
24154;BME280;12312;53.362;-1.518;2023-02-28T05:20:30;101084.53;;;4.12;100.00
24154;BME280;12312;53.362;-1.518;2023-02-28T05:22:56;101086.06;;;4.23;100.00
24154;BME280;12312;53.362;-1.518;2023-02-28T05:25:22;101087.09;;;4.16;100.00
24154;BME280;12312;53.362;-1.518;2023-02-28T05:27:48;101096.00;;;4.08;100.00
24154;BME280;12312;53.362;-1.518;2023-02-28T05:30:14;101093.44;;;4.03;100.00
24154;BME280;12312;53.362;-1.518;2023-02-28T05:32:41;101094.28;;;4.05;100.00
24154;BME280;12312;53.362;-1.518;2023-02-28T05:35:09;101100.44;;;4.04;100.00
24154;BME280;12312;53.362;-1.518;2023-02-28T05:37:35;101094.34;;;4.02;100.00
24154;BME280;12312;53.362;-1.518;2023-02-28T05:40:01;101091.66;;;4.05;100.00
24154;BME280;12312;53.362;-1.518;2023-02-28T05:42:30;101090.72;;;4.08;100.00
24154;BME280;12312;53.362;-1.518;2023-02-28T05:44:55;101098.53;;;4.12;100.00
24154;BME280;12312;53.362;-1.518;2023-02-28T05:47:21;101102.22;;;4.04;100.00
24154;BME280;12312;53.362;-1.518;2023-02-28T05:49:46;101100.44;;;4.04;100.00
24154;BME280;12312;53.362;-1.518;2023-02-28T05:52:12;101096.97;;;4.02;100.00
24154;BME280;12312;53.362;-1.518;2023-02-28T05:54:37;101103.03;;;4.06;100.00
24154;BME280;12312;53.362;-1.518;2023-02-28T05:57:03;101105.66;;;4.07;100.00
24154;BME280;12312;53.362;-1.518;2023-02-28T05:59:28;101092.38;;;4.15;100.00
24154;BME280;12312;53.362;-1.518;2023-02-28T06:01:53;101102.97;;;4.12;100.00
24154;BME280;12312;53.362;-1.518;2023-02-28T06:04:20;101095.88;;;4.14;100.00
24154;BME280;12312;53.362;-1.518;2023-02-28T06:06:49;101101.00;;;4.23;100.00
24154;BME280;12312;53.362;-1.518;2023-02-28T06:09:15;101097.63;;;4.16;100.00
24154;BME280;12312;53.362;-1.518;2023-02-28T06:11:41;101102.91;;;4.15;100.00
24154;BME280;12312;53.362;-1.518;2023-02-28T06:14:07;101108.16;;;4.16;100.00
24154;BME280;12312;53.362;-1.518;2023-02-28T06:16:33;101093.22;;;4.15;100.00
24154;BME280;12312;53.362;-1.518;2023-02-28T06:19:01;101095.91;;;4.12;100.00
24154;BME280;12312;53.362;-1.518;2023-02-28T06:21:27;101091.50;;;4.14;100.00
24154;BME280;12312;53.362;-1.518;2023-02-28T06:23:53;101097.72;;;4.09;100.00
24154;BME280;12312;53.362;-1.518;2023-02-28T06:26:20;101107.31;;;4.14;100.00
24154;BME280;12312;53.362;-1.518;2023-02-28T06:28:46;101094.97;;;4.18;100.00
24154;BME280;12312;53.362;-1.518;2023-02-28T06:31:15;101098.50;;;4.15;100.00
24154;BME280;12312;53.362;-1.518;2023-02-28T06:33:41;101100.28;;;4.15;100.00
24154;BME280;12312;53.362;-1.518;2023-02-28T06:36:08;101101.13;;;4.15;100.00
24154;BME280;12312;53.362;-1.518;2023-02-28T06:38:35;101101.78;;;4.29;100.00
24154;BME280;12312;53.362;-1.518;2023-02-28T06:41:01;101103.56;;;4.27;100.00
24154;BME280;12312;53.362;-1.518;2023-02-28T06:43:29;101105.38;;;4.25;100.00
24154;BME280;12312;53.362;-1.518;2023-02-28T06:45:57;101111.66;;;4.17;100.00
24154;BME280;12312;53.362;-1.518;2023-02-28T06:48:22;101108.03;;;4.24;100.00
24154;BME280;12312;53.362;-1.518;2023-02-28T06:50:48;101115.06;;;4.23;100.00
24154;BME280;12312;53.362;-1.518;2023-02-28T06:53:13;101119.56;;;4.15;100.00
24154;BME280;12312;53.362;-1.518;2023-02-28T06:55:40;101116.13;;;4.13;100.00
24154;BME280;12312;53.362;-1.518;2023-02-28T06:58:06;101117.78;;;4.17;100.00
24154;BME280;12312;53.362;-1.518;2023-02-28T07:00:42;101119.41;;;4.24;100.00
24154;BME280;12312;53.362;-1.518;2023-02-28T07:03:09;101124.78;;;4.18;100.00
24154;BME280;12312;53.362;-1.518;2023-02-28T07:05:36;101121.25;;;4.21;100.00
24154;BME280;12312;53.362;-1.518;2023-02-28T07:08:02;101119.63;;;4.12;100.00
24154;BME280;12312;53.362;-1.518;2023-02-28T07:10:29;101128.38;;;4.14;100.00
24154;BME280;12312;53.362;-1.518;2023-02-28T07:12:55;101124.78;;;4.20;100.00
24154;BME280;12312;53.362;-1.518;2023-02-28T07:15:20;101133.81;;;4.05;100.00
24154;BME280;12312;53.362;-1.518;2023-02-28T07:17:45;101132.19;;;3.95;100.00
24154;BME280;12312;53.362;-1.518;2023-02-28T07:20:11;101136.41;;;4.07;100.00
24154;BME280;12312;53.362;-1.518;2023-02-28T07:22:37;101141.69;;;4.07;100.00
24154;BME280;12312;53.362;-1.518;2023-02-28T07:25:04;101140.00;;;4.00;100.00
24154;BME280;12312;53.362;-1.518;2023-02-28T07:27:30;101142.63;;;4.01;100.00
24154;BME280;12312;53.362;-1.518;2023-02-28T07:29:55;101141.78;;;4.01;100.00
24154;BME280;12312;53.362;-1.518;2023-02-28T07:32:21;101147.88;;;4.01;100.00
24154;BME280;12312;53.362;-1.518;2023-02-28T07:34:46;101135.66;;;3.97;100.00
24154;BME280;12312;53.362;-1.518;2023-02-28T07:37:12;101144.38;;;4.02;100.00
24154;BME280;12312;53.362;-1.518;2023-02-28T07:39:37;101146.25;;;3.94;100.00
24154;BME280;12312;53.362;-1.518;2023-02-28T07:42:06;101146.22;;;3.97;100.00
24154;BME280;12312;53.362;-1.518;2023-02-28T07:44:35;101147.09;;;3.98;100.00
24154;BME280;12312;53.362;-1.518;2023-02-28T07:47:08;101139.09;;;4.04;100.00
24154;BME280;12312;53.362;-1.518;2023-02-28T07:49:37;101153.09;;;4.04;100.00
24154;BME280;12312;53.362;-1.518;2023-02-28T07:52:06;101142.56;;;4.04;100.00
24154;BME280;12312;53.362;-1.518;2023-02-28T07:54:33;101148.78;;;4.02;100.00
24154;BME280;12312;53.362;-1.518;2023-02-28T07:56:59;101146.97;;;4.05;100.00
24154;BME280;12312;53.362;-1.518;2023-02-28T07:59:24;101154.81;;;4.08;100.00
24154;BME280;12312;53.362;-1.518;2023-02-28T08:01:50;101142.47;;;4.10;100.00
24154;BME280;12312;53.362;-1.518;2023-02-28T08:04:17;101142.47;;;4.13;100.00
24154;BME280;12312;53.362;-1.518;2023-02-28T08:06:43;101146.06;;;4.06;100.00
24154;BME280;12312;53.362;-1.518;2023-02-28T08:09:08;101152.97;;;4.15;100.00
24154;BME280;12312;53.362;-1.518;2023-02-28T08:11:34;101142.41;;;4.16;100.00
24154;BME280;12312;53.362;-1.518;2023-02-28T08:14:00;101146.91;;;4.10;100.00
24154;BME280;12312;53.362;-1.518;2023-02-28T08:16:25;101147.72;;;4.13;100.00
24154;BME280;12312;53.362;-1.518;2023-02-28T08:18:52;101148.41;;;4.24;100.00
24154;BME280;12312;53.362;-1.518;2023-02-28T08:21:18;101156.25;;;4.27;100.00
24154;BME280;12312;53.362;-1.518;2023-02-28T08:23:47;101150.94;;;4.30;100.00
24154;BME280;12312;53.362;-1.518;2023-02-28T08:26:15;101149.13;;;4.35;100.00
24154;BME280;12312;53.362;-1.518;2023-02-28T08:28:40;101154.47;;;4.29;100.00
24154;BME280;12312;53.362;-1.518;2023-02-28T08:31:10;101147.47;;;4.30;100.00
24154;BME280;12312;53.362;-1.518;2023-02-28T08:33:36;101146.66;;;4.25;100.00
24154;BME280;12312;53.362;-1.518;2023-02-28T08:36:02;101156.31;;;4.24;100.00
24154;BME280;12312;53.362;-1.518;2023-02-28T08:38:28;101153.56;;;4.32;100.00
24154;BME280;12312;53.362;-1.518;2023-02-28T08:40:58;101156.31;;;4.24;100.00
24154;BME280;12312;53.362;-1.518;2023-02-28T08:43:24;101154.63;;;4.20;100.00
24154;BME280;12312;53.362;-1.518;2023-02-28T08:45:54;101157.94;;;4.34;100.00
24154;BME280;12312;53.362;-1.518;2023-02-28T08:48:26;101159.81;;;4.26;100.00
24154;BME280;12312;53.362;-1.518;2023-02-28T08:53:21;101165.72;;;4.42;100.00
24154;BME280;12312;53.362;-1.518;2023-02-28T08:55:46;101156.16;;;4.33;100.00
24154;BME280;12312;53.362;-1.518;2023-02-28T08:58:11;101161.28;;;4.42;100.00
24154;BME280;12312;53.362;-1.518;2023-02-28T09:00:37;101161.38;;;4.36;100.00
24154;BME280;12312;53.362;-1.518;2023-02-28T09:03:02;101164.78;;;4.44;100.00
24154;BME280;12312;53.362;-1.518;2023-02-28T09:05:28;101163.75;;;4.51;100.00
24154;BME280;12312;53.362;-1.518;2023-02-28T09:07:55;101175.31;;;4.44;100.00
24154;BME280;12312;53.362;-1.518;2023-02-28T09:10:20;101171.06;;;4.37;100.00
24154;BME280;12312;53.362;-1.518;2023-02-28T09:12:46;101175.22;;;4.50;100.00
24154;BME280;12312;53.362;-1.518;2023-02-28T09:15:12;101179.72;;;4.44;100.00
24154;BME280;12312;53.362;-1.518;2023-02-28T09:17:38;101182.41;;;4.39;100.00
24154;BME280;12312;53.362;-1.518;2023-02-28T09:20:04;101176.88;;;4.54;100.00
24154;BME280;12312;53.362;-1.518;2023-02-28T09:22:30;101180.44;;;4.53;100.00
24154;BME280;12312;53.362;-1.518;2023-02-28T09:24:56;101175.06;;;4.59;100.00
24154;BME280;12312;53.362;-1.518;2023-02-28T09:27:21;101177.00;;;4.48;100.00
24154;BME280;12312;53.362;-1.518;2023-02-28T09:29:47;101178.56;;;4.61;100.00
24154;BME280;12312;53.362;-1.518;2023-02-28T09:32:12;101172.28;;;4.67;100.00
24154;BME280;12312;53.362;-1.518;2023-02-28T09:34:38;101181.88;;;4.72;100.00
24154;BME280;12312;53.362;-1.518;2023-02-28T09:37:03;101174.78;;;4.74;100.00
24154;BME280;12312;53.362;-1.518;2023-02-28T09:39:29;101173.97;;;4.72;100.00
24154;BME280;12312;53.362;-1.518;2023-02-28T09:41:55;101181.06;;;4.69;100.00
24154;BME280;12312;53.362;-1.518;2023-02-28T09:44:48;101183.50;;;4.79;100.00
24154;BME280;12312;53.362;-1.518;2023-02-28T09:47:32;101177.84;;;5.00;100.00
24154;BME280;12312;53.362;-1.518;2023-02-28T09:50:11;101179.69;;;4.95;100.00
24154;BME280;12312;53.362;-1.518;2023-02-28T09:52:41;101180.78;;;4.84;100.00
24154;BME280;12312;53.362;-1.518;2023-02-28T09:57:45;101175.41;;;4.88;100.00
24154;BME280;12312;53.362;-1.518;2023-02-28T10:00:15;101185.00;;;4.92;100.00
24154;BME280;12312;53.362;-1.518;2023-02-28T10:05:38;101193.78;;;4.94;100.00
24154;BME280;12312;53.362;-1.518;2023-02-28T10:08:09;101190.34;;;4.89;100.00
24154;BME280;12312;53.362;-1.518;2023-02-28T10:10:43;101196.56;;;4.85;100.00
24154;BME280;12312;53.362;-1.518;2023-02-28T10:13:19;101193.72;;;4.97;100.00
24154;BME280;12312;53.362;-1.518;2023-02-28T10:15:48;101200.66;;;5.01;100.00
24154;BME280;12312;53.362;-1.518;2023-02-28T10:18:20;101207.72;;;5.01;100.00
24154;BME280;12312;53.362;-1.518;2023-02-28T10:20:47;101203.53;;;4.89;100.00
24154;BME280;12312;53.362;-1.518;2023-02-28T10:23:21;101202.38;;;5.05;100.00
24154;BME280;12312;53.362;-1.518;2023-02-28T10:25:57;101204.28;;;4.97;100.00
24154;BME280;12312;53.362;-1.518;2023-02-28T10:28:24;101209.25;;;5.12;100.00
24154;BME280;12312;53.362;-1.518;2023-02-28T10:30:52;101197.13;;;5.04;100.00
24154;BME280;12312;53.362;-1.518;2023-02-28T10:33:34;101195.28;;;5.07;100.00
24154;BME280;12312;53.362;-1.518;2023-02-28T10:36:01;101191.06;;;4.97;100.00
24154;BME280;12312;53.362;-1.518;2023-02-28T10:38:37;101182.63;;;5.24;100.00
24154;BME280;12312;53.362;-1.518;2023-02-28T10:43:33;101171.78;;;5.39;100.00
24154;BME280;12312;53.362;-1.518;2023-02-28T10:46:22;101172.16;;;5.63;100.00
24154;BME280;12312;53.362;-1.518;2023-02-28T10:49:05;101174.69;;;5.69;100.00
24154;BME280;12312;53.362;-1.518;2023-02-28T10:51:36;101172.94;;;5.68;100.00
24154;BME280;12312;53.362;-1.518;2023-02-28T10:54:03;101173.94;;;5.62;100.00
24154;BME280;12312;53.362;-1.518;2023-02-28T10:56:30;101172.94;;;5.68;100.00
24154;BME280;12312;53.362;-1.518;2023-02-28T11:01:46;101166.03;;;5.61;100.00
24154;BME280;12312;53.362;-1.518;2023-02-28T11:04:19;101178.22;;;5.68;100.00
24154;BME280;12312;53.362;-1.518;2023-02-28T11:06:46;101170.00;;;5.83;100.00
24154;BME280;12312;53.362;-1.518;2023-02-28T11:09:25;101173.44;;;5.88;100.00
24154;BME280;12312;53.362;-1.518;2023-02-28T11:11:54;101180.91;;;5.66;100.00
24154;BME280;12312;53.362;-1.518;2023-02-28T11:14:23;101171.38;;;5.57;100.00
24154;BME280;12312;53.362;-1.518;2023-02-28T11:16:49;101161.47;;;5.69;100.00
24154;BME280;12312;53.362;-1.518;2023-02-28T11:19:20;101173.16;;;5.59;100.00
24154;BME280;12312;53.362;-1.518;2023-02-28T11:21:52;101171.66;;;5.45;100.00
24154;BME280;12312;53.362;-1.518;2023-02-28T11:24:42;101173.47;;;5.43;100.00
24154;BME280;12312;53.362;-1.518;2023-02-28T11:29:58;101166.03;;;5.61;100.00
24154;BME280;12312;53.362;-1.518;2023-02-28T11:32:28;101161.38;;;5.73;100.00
24154;BME280;12312;53.362;-1.518;2023-02-28T11:37:31;101151.53;;;5.83;100.00
24154;BME280;12312;53.362;-1.518;2023-02-28T11:39:57;101155.03;;;6.21;100.00
24154;BME280;12312;53.362;-1.518;2023-02-28T11:42:31;101150.19;;;6.02;100.00
24154;BME280;12312;53.362;-1.518;2023-02-28T11:45:27;101155.31;;;6.08;100.00
24154;BME280;12312;53.362;-1.518;2023-02-28T11:48:15;101145.31;;;6.22;100.00
24154;BME280;12312;53.362;-1.518;2023-02-28T11:53:49;101145.53;;;6.13;100.00
24154;BME280;12312;53.362;-1.518;2023-02-28T11:56:33;101134.31;;;6.02;100.00
24154;BME280;12312;53.362;-1.518;2023-02-28T12:19:16;101103.91;;;6.56;100.00
24154;BME280;12312;53.362;-1.518;2023-02-28T12:21:46;101107.31;;;6.59;100.00
24154;BME280;12312;53.362;-1.518;2023-02-28T12:24:30;101102.84;;;6.28;100.00
24154;BME280;12312;53.362;-1.518;2023-02-28T12:27:03;101101.88;;;5.97;100.00
24154;BME280;12312;53.362;-1.518;2023-02-28T12:29:38;101098.81;;;5.75;100.00
24154;BME280;12312;53.362;-1.518;2023-02-28T12:40:51;101090.88;;;6.48;100.00
24154;BME280;12312;53.362;-1.518;2023-02-28T12:43:20;101076.72;;;6.83;100.00
24154;BME280;12312;53.362;-1.518;2023-02-28T12:45:59;101084.72;;;6.48;100.00
24154;BME280;12312;53.362;-1.518;2023-02-28T12:48:40;101069.69;;;6.50;100.00
24154;BME280;12312;53.362;-1.518;2023-02-28T12:51:09;101067.03;;;6.50;100.00
24154;BME280;12312;53.362;-1.518;2023-02-28T12:58:59;101065.66;;;6.00;100.00
24154;BME280;12312;53.362;-1.518;2023-02-28T13:01:38;101058.31;;;5.75;100.00
24154;BME280;12312;53.362;-1.518;2023-02-28T13:04:30;101053.03;;;5.75;100.00
24154;BME280;12312;53.362;-1.518;2023-02-28T13:09:56;101051.31;;;5.74;100.00
24154;BME280;12312;53.362;-1.518;2023-02-28T13:12:22;101053.34;;;5.63;100.00
24154;BME280;12312;53.362;-1.518;2023-02-28T13:14:48;101049.91;;;5.57;100.00
24154;BME280;12312;53.362;-1.518;2023-02-28T13:17:23;101044.13;;;5.80;100.00
24154;BME280;12312;53.362;-1.518;2023-02-28T13:22:37;101051.38;;;5.71;100.00
24154;BME280;12312;53.362;-1.518;2023-02-28T13:27:55;101043.34;;;5.75;100.00
24154;BME280;12312;53.362;-1.518;2023-02-28T13:36:28;101043.25;;;5.41;100.00
24154;BME280;12312;53.362;-1.518;2023-02-28T13:38:57;101049.34;;;5.45;100.00
24154;BME280;12312;53.362;-1.518;2023-02-28T13:44:10;101042.13;;;5.51;100.00
24154;BME280;12312;53.362;-1.518;2023-02-28T14:02:41;101028.78;;;5.57;100.00
24154;BME280;12312;53.362;-1.518;2023-02-28T14:07:47;101023.09;;;5.39;100.00
24154;BME280;12312;53.362;-1.518;2023-02-28T14:10:28;101022.22;;;5.38;100.00
24154;BME280;12312;53.362;-1.518;2023-02-28T14:12:59;101018.16;;;5.24;100.00
24154;BME280;12312;53.362;-1.518;2023-02-28T14:17:56;101027.31;;;5.06;100.00
24154;BME280;12312;53.362;-1.518;2023-02-28T14:20:29;101023.72;;;5.10;100.00
24154;BME280;12312;53.362;-1.518;2023-02-28T14:31:29;101027.50;;;5.38;100.00
24154;BME280;12312;53.362;-1.518;2023-02-28T14:36:45;101033.25;;;5.56;100.00
24154;BME280;12312;53.362;-1.518;2023-02-28T14:39:17;101022.25;;;5.37;100.00
24154;BME280;12312;53.362;-1.518;2023-02-28T14:41:44;101036.03;;;5.49;100.00
24154;BME280;12312;53.362;-1.518;2023-02-28T14:44:24;101023.25;;;5.70;100.00
24154;BME280;12312;53.362;-1.518;2023-02-28T14:46:56;101027.88;;;5.60;100.00
24154;BME280;12312;53.362;-1.518;2023-02-28T14:49:28;101033.25;;;5.56;100.00
24154;BME280;12312;53.362;-1.518;2023-02-28T14:52:27;101008.94;;;5.41;100.00
24154;BME280;12312;53.362;-1.518;2023-02-28T14:55:05;101025.03;;;5.31;100.00
24154;BME280;12312;53.362;-1.518;2023-02-28T14:57:38;101022.41;;;5.29;100.00
24154;BME280;12312;53.362;-1.518;2023-02-28T15:00:21;101020.84;;;5.22;100.00
24154;BME280;12312;53.362;-1.518;2023-02-28T15:02:46;101024.16;;;5.30;100.00
24154;BME280;12312;53.362;-1.518;2023-02-28T15:07:38;101018.38;;;5.51;100.00
24154;BME280;12312;53.362;-1.518;2023-02-28T15:10:20;101011.59;;;5.41;100.00
24154;BME280;12312;53.362;-1.518;2023-02-28T15:15:18;100989.16;;;5.59;100.00
24154;BME280;12312;53.362;-1.518;2023-02-28T15:17:48;100995.09;;;5.69;100.00
24154;BME280;12312;53.362;-1.518;2023-02-28T15:20:16;100993.47;;;5.63;100.00